sensor_id;sensor_type;location;lat;lon;timestamp;pressure;altitude;pressure_sealevel;temperature;humidity
72548;BME280;60570;50.848;6.776;2023-03-16T00:00:17;100878.22;;;7.29;64.05
72548;BME280;60570;50.848;6.776;2023-03-16T00:01:18;100876.66;;;7.22;64.25
72548;BME280;60570;50.848;6.776;2023-03-16T00:02:19;100875.00;;;7.21;63.95
72548;BME280;60570;50.848;6.776;2023-03-16T00:03:19;100877.47;;;7.23;63.86
72548;BME280;60570;50.848;6.776;2023-03-16T00:04:20;100877.25;;;7.19;64.14
72548;BME280;60570;50.848;6.776;2023-03-16T00:05:20;100882.25;;;7.17;64.25
72548;BME280;60570;50.848;6.776;2023-03-16T00:06:21;100876.44;;;7.19;64.15
72548;BME280;60570;50.848;6.776;2023-03-16T00:07:21;100881.16;;;7.18;64.10
72548;BME280;60570;50.848;6.776;2023-03-16T00:08:22;100882.78;;;7.19;64.01
72548;BME280;60570;50.848;6.776;2023-03-16T00:09:23;100876.44;;;7.19;63.82
72548;BME280;60570;50.848;6.776;2023-03-16T00:10:30;100883.91;;;7.18;64.14
72548;BME280;60570;50.848;6.776;2023-03-16T00:11:30;100884.72;;;7.19;63.97
72548;BME280;60570;50.848;6.776;2023-03-16T00:12:31;100884.19;;;7.17;64.26
72548;BME280;60570;50.848;6.776;2023-03-16T00:13:34;100882.19;;;7.22;64.09
72548;BME280;60570;50.848;6.776;2023-03-16T00:14:34;100883.59;;;7.20;63.73
72548;BME280;60570;50.848;6.776;2023-03-16T00:15:34;100884.44;;;7.20;64.08
72548;BME280;60570;50.848;6.776;2023-03-16T00:16:35;100876.72;;;7.17;63.99
72548;BME280;60570;50.848;6.776;2023-03-16T00:17:36;100875.13;;;7.16;63.91
72548;BME280;60570;50.848;6.776;2023-03-16T00:18:36;100868.25;;;7.14;63.74
72548;BME280;60570;50.848;6.776;2023-03-16T00:19:37;100870.69;;;7.15;64.07
72548;BME280;60570;50.848;6.776;2023-03-16T00:20:38;100869.78;;;7.20;64.23
72548;BME280;60570;50.848;6.776;2023-03-16T00:21:38;100871.22;;;7.17;64.03
72548;BME280;60570;50.848;6.776;2023-03-16T00:22:39;100862.72;;;7.14;63.82
72548;BME280;60570;50.848;6.776;2023-03-16T00:23:41;100868.75;;;7.16;63.99
72548;BME280;60570;50.848;6.776;2023-03-16T00:24:42;100867.63;;;7.17;63.76
72548;BME280;60570;50.848;6.776;2023-03-16T00:25:42;100868.25;;;7.14;64.16
72548;BME280;60570;50.848;6.776;2023-03-16T00:26:46;100861.88;;;7.13;63.89
72548;BME280;60570;50.848;6.776;2023-03-16T00:27:47;100859.66;;;7.15;63.83
72548;BME280;60570;50.848;6.776;2023-03-16T00:28:47;100862.72;;;7.14;64.03
72548;BME280;60570;50.848;6.776;2023-03-16T00:29:49;100860.47;;;7.16;63.95
72548;BME280;60570;50.848;6.776;2023-03-16T00:30:54;100862.50;;;7.10;63.68
72548;BME280;60570;50.848;6.776;2023-03-16T00:31:58;100859.44;;;7.12;64.01
72548;BME280;60570;50.848;6.776;2023-03-16T00:32:58;100864.44;;;7.10;63.90
72548;BME280;60570;50.848;6.776;2023-03-16T00:33:59;100855.34;;;7.09;64.15
72548;BME280;60570;50.848;6.776;2023-03-16T00:35:03;100859.34;;;7.17;63.81
72548;BME280;60570;50.848;6.776;2023-03-16T00:36:05;100854.75;;;7.12;63.87
72548;BME280;60570;50.848;6.776;2023-03-16T00:37:08;100853.09;;;7.11;64.23
72548;BME280;60570;50.848;6.776;2023-03-16T00:38:09;100857.50;;;7.12;63.61
72548;BME280;60570;50.848;6.776;2023-03-16T00:39:09;100858.34;;;7.13;63.78
72548;BME280;60570;50.848;6.776;2023-03-16T00:40:11;100859.44;;;7.12;63.82
72548;BME280;60570;50.848;6.776;2023-03-16T00:41:13;100863.34;;;7.11;64.13
72548;BME280;60570;50.848;6.776;2023-03-16T00:42:15;100866.69;;;7.08;63.43
72548;BME280;60570;50.848;6.776;2023-03-16T00:43:16;100853.72;;;7.08;63.54
72548;BME280;60570;50.848;6.776;2023-03-16T00:44:17;100859.13;;;7.13;63.43
72548;BME280;60570;50.848;6.776;2023-03-16T00:45:18;100849.53;;;7.11;63.84
72548;BME280;60570;50.848;6.776;2023-03-16T00:46:18;100849.00;;;7.09;63.68
72548;BME280;60570;50.848;6.776;2023-03-16T00:47:19;100845.41;;;7.08;63.70
72548;BME280;60570;50.848;6.776;2023-03-16T00:48:19;100850.63;;;7.10;63.62
72548;BME280;60570;50.848;6.776;2023-03-16T00:49:23;100844.00;;;7.11;63.91
72548;BME280;60570;50.848;6.776;2023-03-16T00:50:24;100845.72;;;7.07;63.91
72548;BME280;60570;50.848;6.776;2023-03-16T00:51:24;100847.88;;;7.10;64.02
72548;BME280;60570;50.848;6.776;2023-03-16T00:52:25;100847.03;;;7.09;63.71
72548;BME280;60570;50.848;6.776;2023-03-16T00:53:26;100842.16;;;7.06;63.88
72548;BME280;60570;50.848;6.776;2023-03-16T00:54:28;100842.16;;;7.06;63.77
72548;BME280;60570;50.848;6.776;2023-03-16T00:55:28;100841.31;;;7.06;63.93
72548;BME280;60570;50.848;6.776;2023-03-16T00:56:29;100846.84;;;7.06;64.15
72548;BME280;60570;50.848;6.776;2023-03-16T00:57:29;100849.09;;;7.04;64.03
72548;BME280;60570;50.848;6.776;2023-03-16T00:58:34;100851.84;;;7.04;63.75
72548;BME280;60570;50.848;6.776;2023-03-16T00:59:34;100852.06;;;7.07;63.87
72548;BME280;60570;50.848;6.776;2023-03-16T01:00:38;100846.84;;;7.06;63.90
72548;BME280;60570;50.848;6.776;2023-03-16T01:01:39;100850.75;;;7.05;63.91
72548;BME280;60570;50.848;6.776;2023-03-16T01:02:41;100840.41;;;7.10;63.34
72548;BME280;60570;50.848;6.776;2023-03-16T01:03:45;100862.72;;;7.14;63.56
72548;BME280;60570;50.848;6.776;2023-03-16T01:04:46;100846.16;;;7.14;63.28
72548;BME280;60570;50.848;6.776;2023-03-16T01:05:46;100852.81;;;7.13;63.64
72548;BME280;60570;50.848;6.776;2023-03-16T01:06:48;100855.84;;;7.11;63.54
72548;BME280;60570;50.848;6.776;2023-03-16T01:07:48;100859.53;;;7.07;63.29
72548;BME280;60570;50.848;6.776;2023-03-16T01:08:49;100854.03;;;7.07;63.54
72548;BME280;60570;50.848;6.776;2023-03-16T01:09:51;100851.03;;;7.03;63.57
72548;BME280;60570;50.848;6.776;2023-03-16T01:10:52;100848.50;;;7.07;63.44
72548;BME280;60570;50.848;6.776;2023-03-16T01:11:52;100843.19;;;7.10;63.50
72548;BME280;60570;50.848;6.776;2023-03-16T01:12:53;100831.69;;;7.03;63.65
72548;BME280;60570;50.848;6.776;2023-03-16T01:13:55;100829.44;;;7.05;63.49
72548;BME280;60570;50.848;6.776;2023-03-16T01:14:56;100834.06;;;7.10;63.55
72548;BME280;60570;50.848;6.776;2023-03-16T01:15:58;100836.41;;;7.03;63.34
72548;BME280;60570;50.848;6.776;2023-03-16T01:16:58;100833.53;;;7.08;63.75
72548;BME280;60570;50.848;6.776;2023-03-16T01:17:59;100831.09;;;7.06;63.26
72548;BME280;60570;50.848;6.776;2023-03-16T01:19:00;100833.03;;;7.06;63.62
72548;BME280;60570;50.848;6.776;2023-03-16T01:20:01;100822.81;;;7.06;63.49
72548;BME280;60570;50.848;6.776;2023-03-16T01:21:05;100822.09;;;7.01;63.65
72548;BME280;60570;50.848;6.776;2023-03-16T01:22:06;100824.53;;;7.02;63.48
72548;BME280;60570;50.848;6.776;2023-03-16T01:23:08;100823.19;;;7.00;63.72
72548;BME280;60570;50.848;6.776;2023-03-16T01:24:09;100826.16;;;7.03;63.17
72548;BME280;60570;50.848;6.776;2023-03-16T01:25:11;100827.94;;;6.99;63.46
72548;BME280;60570;50.848;6.776;2023-03-16T01:26:12;100819.53;;;7.04;63.32
72548;BME280;60570;50.848;6.776;2023-03-16T01:27:14;100815.44;;;7.02;63.60
72548;BME280;60570;50.848;6.776;2023-03-16T01:28:15;100807.78;;;7.12;62.90
72548;BME280;60570;50.848;6.776;2023-03-16T01:29:15;100812.28;;;7.08;63.08
72548;BME280;60570;50.848;6.776;2023-03-16T01:30:15;100809.72;;;7.12;63.45
72548;BME280;60570;50.848;6.776;2023-03-16T01:31:16;100809.00;;;7.06;63.31
72548;BME280;60570;50.848;6.776;2023-03-16T01:32:16;100807.13;;;7.02;63.30
72548;BME280;60570;50.848;6.776;2023-03-16T01:33:17;100801.53;;;7.07;63.47
72548;BME280;60570;50.848;6.776;2023-03-16T01:34:17;100812.06;;;7.05;63.03
72548;BME280;60570;50.848;6.776;2023-03-16T01:35:18;100806.25;;;7.06;63.62
72548;BME280;60570;50.848;6.776;2023-03-16T01:36:21;100799.06;;;7.05;63.11
72548;BME280;60570;50.848;6.776;2023-03-16T01:37:21;100801.53;;;7.07;63.38
72548;BME280;60570;50.848;6.776;2023-03-16T01:38:22;100800.50;;;7.03;63.17
72548;BME280;60570;50.848;6.776;2023-03-16T01:39:23;100797.53;;;6.99;63.08
72548;BME280;60570;50.848;6.776;2023-03-16T01:40:24;100792.81;;;7.00;62.87
72548;BME280;60570;50.848;6.776;2023-03-16T01:41:25;100799.47;;;6.99;63.24
72548;BME280;60570;50.848;6.776;2023-03-16T01:42:26;100796.41;;;7.00;63.53
72548;BME280;60570;50.848;6.776;2023-03-16T01:43:28;100798.03;;;7.01;63.22
72548;BME280;60570;50.848;6.776;2023-03-16T01:44:55;100795.06;;;6.98;63.20
72548;BME280;60570;50.848;6.776;2023-03-16T01:47:03;100792.75;;;7.05;63.06
72548;BME280;60570;50.848;6.776;2023-03-16T01:48:04;100790.38;;;6.98;63.09
72548;BME280;60570;50.848;6.776;2023-03-16T01:49:18;100789.84;;;6.96;62.89
72548;BME280;60570;50.848;6.776;2023-03-16T01:50:19;100785.75;;;6.94;63.53
72548;BME280;60570;50.848;6.776;2023-03-16T01:51:41;100778.59;;;6.93;63.54
72548;BME280;60570;50.848;6.776;2023-03-16T01:52:42;100780.88;;;7.04;62.79
72548;BME280;60570;50.848;6.776;2023-03-16T01:53:44;100777.97;;;6.96;63.11
72548;BME280;60570;50.848;6.776;2023-03-16T01:55:49;100783.44;;;7.01;63.37
72548;BME280;60570;50.848;6.776;2023-03-16T01:58:10;100782.47;;;6.92;63.40
72548;BME280;60570;50.848;6.776;2023-03-16T01:59:15;100777.78;;;6.92;63.55
72548;BME280;60570;50.848;6.776;2023-03-16T02:00:18;100777.47;;;6.94;63.39
72548;BME280;60570;50.848;6.776;2023-03-16T02:01:20;100775.22;;;6.96;63.57
72548;BME280;60570;50.848;6.776;2023-03-16T02:02:24;100778.09;;;6.91;63.33
72548;BME280;60570;50.848;6.776;2023-03-16T02:03:25;100780.75;;;6.96;63.32
72548;BME280;60570;50.848;6.776;2023-03-16T02:05:46;100771.94;;;6.94;63.23
72548;BME280;60570;50.848;6.776;2023-03-16T02:06:54;100767.88;;;6.91;63.46
72548;BME280;60570;50.848;6.776;2023-03-16T02:07:55;100766.22;;;6.90;63.19
72548;BME280;60570;50.848;6.776;2023-03-16T02:08:58;100767.56;;;6.93;63.40
72548;BME280;60570;50.848;6.776;2023-03-16T02:10:02;100769.50;;;6.92;63.36
72548;BME280;60570;50.848;6.776;2023-03-16T02:11:05;100767.75;;;6.96;62.98
72548;BME280;60570;50.848;6.776;2023-03-16T02:12:08;100770.63;;;6.91;63.32
72548;BME280;60570;50.848;6.776;2023-03-16T02:13:09;100768.91;;;6.95;63.52
72548;BME280;60570;50.848;6.776;2023-03-16T02:14:11;100762.63;;;6.90;63.58
72548;BME280;60570;50.848;6.776;2023-03-16T02:15:13;100763.44;;;6.90;63.63
72548;BME280;60570;50.848;6.776;2023-03-16T02:16:16;100762.63;;;6.90;63.60
72548;BME280;60570;50.848;6.776;2023-03-16T02:17:21;100763.44;;;6.90;63.39
72548;BME280;60570;50.848;6.776;2023-03-16T02:18:23;100756.72;;;6.96;63.23
72548;BME280;60570;50.848;6.776;2023-03-16T02:20:50;100767.25;;;6.94;63.28
72548;BME280;60570;50.848;6.776;2023-03-16T02:22:06;100765.91;;;6.92;63.40
72548;BME280;60570;50.848;6.776;2023-03-16T02:23:10;100763.44;;;6.90;63.52
72548;BME280;60570;50.848;6.776;2023-03-16T02:24:17;100765.63;;;6.93;63.56
72548;BME280;60570;50.848;6.776;2023-03-16T02:25:18;100769.81;;;6.91;63.26
72548;BME280;60570;50.848;6.776;2023-03-16T02:26:40;100764.88;;;6.88;63.36
72548;BME280;60570;50.848;6.776;2023-03-16T02:28:07;100754.84;;;6.92;63.60
72548;BME280;60570;50.848;6.776;2023-03-16T02:30:23;100753.25;;;6.91;63.50
72548;BME280;60570;50.848;6.776;2023-03-16T02:31:24;100750.16;;;6.92;63.20
72548;BME280;60570;50.848;6.776;2023-03-16T02:32:26;100753.53;;;6.89;63.65
72548;BME280;60570;50.848;6.776;2023-03-16T02:33:28;100747.19;;;6.89;63.47
72548;BME280;60570;50.848;6.776;2023-03-16T02:34:31;100751.59;;;6.90;63.57
72548;BME280;60570;50.848;6.776;2023-03-16T02:35:32;100739.81;;;6.84;63.28
72548;BME280;60570;50.848;6.776;2023-03-16T02:36:33;100737.88;;;6.85;63.55
72548;BME280;60570;50.848;6.776;2023-03-16T02:37:35;100738.41;;;6.87;63.49
72548;BME280;60570;50.848;6.776;2023-03-16T02:38:36;100728.38;;;6.91;63.39
72548;BME280;60570;50.848;6.776;2023-03-16T02:39:36;100727.25;;;6.92;63.38
72548;BME280;60570;50.848;6.776;2023-03-16T02:40:37;100729.50;;;6.90;63.64
72548;BME280;60570;50.848;6.776;2023-03-16T02:41:38;100731.75;;;6.88;63.58
72548;BME280;60570;50.848;6.776;2023-03-16T02:42:39;100734.50;;;6.88;63.33
72548;BME280;60570;50.848;6.776;2023-03-16T02:43:46;100722.66;;;6.87;63.36
72548;BME280;60570;50.848;6.776;2023-03-16T02:44:55;100728.50;;;6.86;63.46
72548;BME280;60570;50.848;6.776;2023-03-16T02:45:58;100735.44;;;6.83;63.70
72548;BME280;60570;50.848;6.776;2023-03-16T02:47:02;100729.28;;;6.86;63.45
72548;BME280;60570;50.848;6.776;2023-03-16T02:48:09;100730.13;;;6.87;63.29
72548;BME280;60570;50.848;6.776;2023-03-16T02:49:33;100725.94;;;6.89;63.44
72548;BME280;60570;50.848;6.776;2023-03-16T02:50:35;100724.19;;;6.93;63.35
72548;BME280;60570;50.848;6.776;2023-03-16T02:51:36;100730.00;;;6.92;63.40
72548;BME280;60570;50.848;6.776;2023-03-16T02:52:37;100723.56;;;6.96;63.25
72548;BME280;60570;50.848;6.776;2023-03-16T02:53:38;100727.88;;;6.89;63.41
72548;BME280;60570;50.848;6.776;2023-03-16T02:54:38;100725.31;;;6.92;63.32
72548;BME280;60570;50.848;6.776;2023-03-16T02:55:39;100723.19;;;6.89;63.07
72548;BME280;60570;50.848;6.776;2023-03-16T02:56:39;100728.69;;;6.89;63.33
72548;BME280;60570;50.848;6.776;2023-03-16T02:57:41;100720.69;;;6.88;63.37
72548;BME280;60570;50.848;6.776;2023-03-16T02:58:41;100716.94;;;6.84;63.50
72548;BME280;60570;50.848;6.776;2023-03-16T02:59:42;100716.31;;;6.87;63.43
72548;BME280;60570;50.848;6.776;2023-03-16T03:00:42;100710.28;;;6.85;63.31
72548;BME280;60570;50.848;6.776;2023-03-16T03:01:44;100708.03;;;6.87;63.19
72548;BME280;60570;50.848;6.776;2023-03-16T03:02:45;100703.84;;;6.89;63.33
72548;BME280;60570;50.848;6.776;2023-03-16T03:03:45;100707.00;;;6.83;63.18
72548;BME280;60570;50.848;6.776;2023-03-16T03:04:45;100705.06;;;6.83;63.53
72548;BME280;60570;50.848;6.776;2023-03-16T03:05:46;100703.41;;;6.82;63.45
72548;BME280;60570;50.848;6.776;2023-03-16T03:06:46;100702.31;;;6.83;63.28
72548;BME280;60570;50.848;6.776;2023-03-16T03:07:47;100696.78;;;6.83;63.20
72548;BME280;60570;50.848;6.776;2023-03-16T03:08:47;100705.38;;;6.82;63.08
72548;BME280;60570;50.848;6.776;2023-03-16T03:09:48;100701.69;;;6.86;63.09
72548;BME280;60570;50.848;6.776;2023-03-16T03:10:48;100700.38;;;6.84;63.15
72548;BME280;60570;50.848;6.776;2023-03-16T03:11:49;100702.91;;;6.80;63.50
72548;BME280;60570;50.848;6.776;2023-03-16T03:12:50;100705.06;;;6.83;63.53
72548;BME280;60570;50.848;6.776;2023-03-16T03:13:51;100701.78;;;6.81;63.30
72548;BME280;60570;50.848;6.776;2023-03-16T03:14:51;100699.34;;;6.80;63.28
72548;BME280;60570;50.848;6.776;2023-03-16T03:15:52;100703.41;;;6.82;63.28
72548;BME280;60570;50.848;6.776;2023-03-16T03:16:52;100701.47;;;6.83;63.56
72548;BME280;60570;50.848;6.776;2023-03-16T03:17:53;100703.53;;;6.77;63.21
72548;BME280;60570;50.848;6.776;2023-03-16T03:18:53;100701.78;;;6.81;63.35
72548;BME280;60570;50.848;6.776;2023-03-16T03:19:53;100698.53;;;6.79;63.24
72548;BME280;60570;50.848;6.776;2023-03-16T03:20:54;100695.75;;;6.79;63.41
72548;BME280;60570;50.848;6.776;2023-03-16T03:21:54;100701.16;;;6.84;63.32
72548;BME280;60570;50.848;6.776;2023-03-16T03:22:55;100700.97;;;6.81;63.09
72548;BME280;60570;50.848;6.776;2023-03-16T03:23:56;100694.84;;;6.84;63.13
72548;BME280;60570;50.848;6.776;2023-03-16T03:24:56;100704.56;;;6.81;63.20
72548;BME280;60570;50.848;6.776;2023-03-16T03:25:58;100699.03;;;6.81;63.14
72548;BME280;60570;50.848;6.776;2023-03-16T03:26:59;100704.03;;;6.79;63.38
72548;BME280;60570;50.848;6.776;2023-03-16T03:28:00;100702.63;;;6.82;63.31
72548;BME280;60570;50.848;6.776;2023-03-16T03:29:02;100704.25;;;6.83;63.23
72548;BME280;60570;50.848;6.776;2023-03-16T03:30:03;100704.25;;;6.83;63.14
72548;BME280;60570;50.848;6.776;2023-03-16T03:31:04;100700.88;;;6.86;63.15
72548;BME280;60570;50.848;6.776;2023-03-16T03:32:05;100702.00;;;6.85;63.32
72548;BME280;60570;50.848;6.776;2023-03-16T03:33:06;100706.41;;;6.86;63.11
72548;BME280;60570;50.848;6.776;2023-03-16T03:34:06;100699.53;;;6.83;63.27
72548;BME280;60570;50.848;6.776;2023-03-16T03:35:07;100703.34;;;6.87;63.38
72548;BME280;60570;50.848;6.776;2023-03-16T03:36:09;100704.63;;;6.90;63.15
72548;BME280;60570;50.848;6.776;2023-03-16T03:37:10;100700.88;;;6.86;63.37
72548;BME280;60570;50.848;6.776;2023-03-16T03:38:11;100689.59;;;6.82;63.28
72548;BME280;60570;50.848;6.776;2023-03-16T03:39:11;100698.13;;;6.86;62.92
72548;BME280;60570;50.848;6.776;2023-03-16T03:40:14;100692.78;;;6.76;63.31
72548;BME280;60570;50.848;6.776;2023-03-16T03:41:15;100698.84;;;6.78;63.64
72548;BME280;60570;50.848;6.776;2023-03-16T03:42:15;100695.25;;;6.77;63.29
72548;BME280;60570;50.848;6.776;2023-03-16T03:43:19;100693.91;;;6.75;63.35
72548;BME280;60570;50.848;6.776;2023-03-16T03:44:23;100695.03;;;6.74;63.36
72548;BME280;60570;50.848;6.776;2023-03-16T03:45:24;100696.06;;;6.78;63.30
72548;BME280;60570;50.848;6.776;2023-03-16T03:46:25;100690.56;;;6.78;63.56
72548;BME280;60570;50.848;6.776;2023-03-16T03:47:26;100687.56;;;6.74;63.31
72548;BME280;60570;50.848;6.776;2023-03-16T03:48:27;100690.63;;;6.73;63.38
72548;BME280;60570;50.848;6.776;2023-03-16T03:49:28;100690.63;;;6.73;63.25
72548;BME280;60570;50.848;6.776;2023-03-16T03:50:28;100694.22;;;6.73;63.41
72548;BME280;60570;50.848;6.776;2023-03-16T03:51:29;100699.75;;;6.73;63.35
72548;BME280;60570;50.848;6.776;2023-03-16T03:52:30;100686.75;;;6.74;63.42
72548;BME280;60570;50.848;6.776;2023-03-16T03:53:30;100690.31;;;6.74;63.71
72548;BME280;60570;50.848;6.776;2023-03-16T03:54:31;100687.78;;;6.78;63.25
72548;BME280;60570;50.848;6.776;2023-03-16T03:55:31;100694.22;;;6.73;63.34
72548;BME280;60570;50.848;6.776;2023-03-16T03:56:32;100691.78;;;6.72;63.13
72548;BME280;60570;50.848;6.776;2023-03-16T03:57:32;100685.63;;;6.75;63.38
72548;BME280;60570;50.848;6.776;2023-03-16T03:58:33;100693.91;;;6.75;63.45
72548;BME280;60570;50.848;6.776;2023-03-16T03:59:33;100689.22;;;6.75;63.42
72548;BME280;60570;50.848;6.776;2023-03-16T04:00:34;100687.78;;;6.78;63.29
72548;BME280;60570;50.848;6.776;2023-03-16T04:01:35;100699.13;;;6.76;63.23
72548;BME280;60570;50.848;6.776;2023-03-16T04:02:36;100695.75;;;6.79;63.25
72548;BME280;60570;50.848;6.776;2023-03-16T04:03:36;100692.78;;;6.76;63.51
72548;BME280;60570;50.848;6.776;2023-03-16T04:04:36;100690.84;;;6.76;63.45
72548;BME280;60570;50.848;6.776;2023-03-16T04:05:37;100692.88;;;6.71;63.33
72548;BME280;60570;50.848;6.776;2023-03-16T04:06:37;100690.94;;;6.71;63.15
72548;BME280;60570;50.848;6.776;2023-03-16T04:07:38;100691.16;;;6.75;63.42
72548;BME280;60570;50.848;6.776;2023-03-16T04:08:38;100696.97;;;6.73;63.54
72548;BME280;60570;50.848;6.776;2023-03-16T04:09:39;100690.13;;;6.71;63.10
72548;BME280;60570;50.848;6.776;2023-03-16T04:10:41;100685.09;;;6.73;63.54
72548;BME280;60570;50.848;6.776;2023-03-16T04:11:41;100692.28;;;6.74;63.54
72548;BME280;60570;50.848;6.776;2023-03-16T04:12:41;100696.47;;;6.71;63.17
72548;BME280;60570;50.848;6.776;2023-03-16T04:13:42;100693.59;;;6.76;63.49
72548;BME280;60570;50.848;6.776;2023-03-16T04:14:42;100690.75;;;6.81;63.09
72548;BME280;60570;50.848;6.776;2023-03-16T04:15:43;100690.84;;;6.76;62.97
72548;BME280;60570;50.848;6.776;2023-03-16T04:16:46;100690.84;;;6.76;63.09
72548;BME280;60570;50.848;6.776;2023-03-16T04:17:47;100692.56;;;6.72;63.47
72548;BME280;60570;50.848;6.776;2023-03-16T04:18:47;100686.25;;;6.72;63.33
72548;BME280;60570;50.848;6.776;2023-03-16T04:19:48;100691.97;;;6.75;63.32
72548;BME280;60570;50.848;6.776;2023-03-16T04:20:48;100685.75;;;6.70;63.11
72548;BME280;60570;50.848;6.776;2023-03-16T04:21:50;100686.13;;;6.77;63.09
72548;BME280;60570;50.848;6.776;2023-03-16T04:22:50;100680.41;;;6.73;63.25
72548;BME280;60570;50.848;6.776;2023-03-16T04:23:57;100686.56;;;6.70;63.34
72548;BME280;60570;50.848;6.776;2023-03-16T04:24:57;100687.47;;;6.66;63.31
72548;BME280;60570;50.848;6.776;2023-03-16T04:25:58;100687.97;;;6.68;63.40
72548;BME280;60570;50.848;6.776;2023-03-16T04:26:59;100683.88;;;6.65;63.29
72548;BME280;60570;50.848;6.776;2023-03-16T04:28:01;100678.28;;;6.70;63.31
72548;BME280;60570;50.848;6.776;2023-03-16T04:29:02;100680.81;;;6.67;63.64
72548;BME280;60570;50.848;6.776;2023-03-16T04:30:08;100682.66;;;6.71;63.29
72548;BME280;60570;50.848;6.776;2023-03-16T04:31:10;100680.09;;;6.75;63.06
72548;BME280;60570;50.848;6.776;2023-03-16T04:32:10;100676.94;;;6.68;63.36
72548;BME280;60570;50.848;6.776;2023-03-16T04:33:11;100678.75;;;6.72;63.24
72548;BME280;60570;50.848;6.776;2023-03-16T04:34:12;100682.47;;;6.68;63.30
72548;BME280;60570;50.848;6.776;2023-03-16T04:35:13;100678.34;;;6.65;63.10
72548;BME280;60570;50.848;6.776;2023-03-16T04:36:14;100675.91;;;6.64;63.73
72548;BME280;60570;50.848;6.776;2023-03-16T04:37:15;100677.84;;;6.77;63.20
72548;BME280;60570;50.848;6.776;2023-03-16T04:38:15;100675.81;;;6.69;63.25
72548;BME280;60570;50.848;6.776;2023-03-16T04:39:17;100670.78;;;6.71;63.41
72548;BME280;60570;50.848;6.776;2023-03-16T04:40:18;100672.00;;;6.65;63.27
72548;BME280;60570;50.848;6.776;2023-03-16T04:41:18;100668.34;;;6.69;63.40
72548;BME280;60570;50.848;6.776;2023-03-16T04:42:19;100675.28;;;6.67;63.25
72548;BME280;60570;50.848;6.776;2023-03-16T04:43:19;100666.50;;;6.65;63.78
72548;BME280;60570;50.848;6.776;2023-03-16T04:44:20;100668.84;;;6.71;63.30
72548;BME280;60570;50.848;6.776;2023-03-16T04:45:20;100658.97;;;6.70;63.19
72548;BME280;60570;50.848;6.776;2023-03-16T04:46:20;100661.81;;;6.65;63.10
72548;BME280;60570;50.848;6.776;2023-03-16T04:47:21;100670.38;;;6.64;63.27
72548;BME280;60570;50.848;6.776;2023-03-16T04:48:22;100663.44;;;6.66;63.72
72548;BME280;60570;50.848;6.776;2023-03-16T04:49:23;100662.63;;;6.66;63.33
72548;BME280;60570;50.848;6.776;2023-03-16T04:50:24;100662.44;;;6.62;63.76
72548;BME280;60570;50.848;6.776;2023-03-16T04:51:25;100655.44;;;6.65;63.63
72548;BME280;60570;50.848;6.776;2023-03-16T04:52:25;100654.34;;;6.66;63.25
72548;BME280;60570;50.848;6.776;2023-03-16T04:53:26;100651.28;;;6.67;63.19
72548;BME280;60570;50.848;6.776;2023-03-16T04:54:27;100650.69;;;6.70;63.17
72548;BME280;60570;50.848;6.776;2023-03-16T04:55:27;100656.47;;;6.69;63.26
72548;BME280;60570;50.848;6.776;2023-03-16T04:56:28;100652.69;;;6.65;63.14
72548;BME280;60570;50.848;6.776;2023-03-16T04:57:28;100645.16;;;6.70;63.03
72548;BME280;60570;50.848;6.776;2023-03-16T04:58:29;100642.78;;;6.64;63.25
72548;BME280;60570;50.848;6.776;2023-03-16T04:59:30;100641.88;;;6.68;63.30
72548;BME280;60570;50.848;6.776;2023-03-16T05:00:31;100643.81;;;6.68;63.22
72548;BME280;60570;50.848;6.776;2023-03-16T05:01:31;100646.38;;;6.64;63.00
72548;BME280;60570;50.848;6.776;2023-03-16T05:02:32;100644.22;;;6.61;63.31
72548;BME280;60570;50.848;6.776;2023-03-16T05:03:32;100646.16;;;6.61;63.28
72548;BME280;60570;50.848;6.776;2023-03-16T05:04:33;100643.38;;;6.61;63.30
72548;BME280;60570;50.848;6.776;2023-03-16T05:05:35;100648.38;;;6.59;63.49
72548;BME280;60570;50.848;6.776;2023-03-16T05:06:36;100651.38;;;6.62;63.13
72548;BME280;60570;50.848;6.776;2023-03-16T05:07:36;100648.38;;;6.59;63.50
72548;BME280;60570;50.848;6.776;2023-03-16T05:08:37;100647.91;;;6.57;63.70
72548;BME280;60570;50.848;6.776;2023-03-16T05:09:37;100652.28;;;6.58;63.61
72548;BME280;60570;50.848;6.776;2023-03-16T05:10:57;100645.94;;;6.57;63.14
72548;BME280;60570;50.848;6.776;2023-03-16T05:11:58;100642.41;;;6.57;63.10
72548;BME280;60570;50.848;6.776;2023-03-16T05:12:58;100645.94;;;6.57;63.38
72548;BME280;60570;50.848;6.776;2023-03-16T05:14:00;100649.22;;;6.59;63.22
72548;BME280;60570;50.848;6.776;2023-03-16T05:15:01;100646.16;;;6.61;63.70
72548;BME280;60570;50.848;6.776;2023-03-16T05:16:02;100642.06;;;6.58;63.55
72548;BME280;60570;50.848;6.776;2023-03-16T05:17:03;100644.72;;;6.63;63.33
72548;BME280;60570;50.848;6.776;2023-03-16T05:18:03;100640.44;;;6.57;63.17
72548;BME280;60570;50.848;6.776;2023-03-16T05:19:04;100642.66;;;6.55;63.50
72548;BME280;60570;50.848;6.776;2023-03-16T05:20:04;100642.28;;;6.62;63.51
72548;BME280;60570;50.848;6.776;2023-03-16T05:21:11;100643.69;;;6.59;63.37
72548;BME280;60570;50.848;6.776;2023-03-16T05:22:11;100643.38;;;6.61;63.11
72548;BME280;60570;50.848;6.776;2023-03-16T05:23:12;100643.19;;;6.57;63.62
72548;BME280;60570;50.848;6.776;2023-03-16T05:24:12;100644.63;;;6.55;63.29
72548;BME280;60570;50.848;6.776;2023-03-16T05:25:14;100642.41;;;6.57;63.72
72548;BME280;60570;50.848;6.776;2023-03-16T05:26:15;100645.44;;;6.55;63.60
72548;BME280;60570;50.848;6.776;2023-03-16T05:27:15;100645.44;;;6.55;63.67
72548;BME280;60570;50.848;6.776;2023-03-16T05:28:16;100641.06;;;6.54;63.45
72548;BME280;60570;50.848;6.776;2023-03-16T05:29:17;100647.81;;;6.62;63.24
72548;BME280;60570;50.848;6.776;2023-03-16T05:30:17;100646.78;;;6.58;63.27
72548;BME280;60570;50.848;6.776;2023-03-16T05:31:18;100646.97;;;6.61;63.17
72548;BME280;60570;50.848;6.776;2023-03-16T05:32:18;100643.50;;;6.56;63.66
72548;BME280;60570;50.848;6.776;2023-03-16T05:33:19;100636.03;;;6.56;63.29
72548;BME280;60570;50.848;6.776;2023-03-16T05:34:20;100641.38;;;6.53;63.35